sensor_id;sensor_type;location;lat;lon;timestamp;P1;durP1;ratioP1;P2;durP2;ratioP2
2458;SDS011;1241;50.920;6.936;2023-04-03T00:00:41;6.13;;;5.55;;
2458;SDS011;1241;50.920;6.936;2023-04-03T00:03:07;6.80;;;5.70;;
2458;SDS011;1241;50.920;6.936;2023-04-03T00:05:32;8.93;;;7.13;;
2458;SDS011;1241;50.920;6.936;2023-04-03T00:07:58;7.15;;;6.45;;
2458;SDS011;1241;50.920;6.936;2023-04-03T00:10:24;8.25;;;6.10;;
2458;SDS011;1241;50.920;6.936;2023-04-03T00:12:49;6.40;;;5.80;;
2458;SDS011;1241;50.920;6.936;2023-04-03T00:15:15;6.80;;;5.83;;
2458;SDS011;1241;50.920;6.936;2023-04-03T00:17:41;6.65;;;5.80;;
2458;SDS011;1241;50.920;6.936;2023-04-03T00:20:07;8.45;;;5.70;;
2458;SDS011;1241;50.920;6.936;2023-04-03T00:22:33;6.07;;;4.87;;
2458;SDS011;1241;50.920;6.936;2023-04-03T00:24:59;8.27;;;6.60;;
2458;SDS011;1241;50.920;6.936;2023-04-03T00:27:25;6.07;;;5.38;;
2458;SDS011;1241;50.920;6.936;2023-04-03T00:29:51;9.07;;;6.63;;
2458;SDS011;1241;50.920;6.936;2023-04-03T00:32:16;7.97;;;6.85;;
2458;SDS011;1241;50.920;6.936;2023-04-03T00:34:42;5.77;;;5.27;;
2458;SDS011;1241;50.920;6.936;2023-04-03T00:37:08;5.30;;;4.80;;
2458;SDS011;1241;50.920;6.936;2023-04-03T00:39:34;7.30;;;5.47;;
2458;SDS011;1241;50.920;6.936;2023-04-03T00:42:00;6.10;;;5.50;;
2458;SDS011;1241;50.920;6.936;2023-04-03T00:47:03;7.50;;;5.33;;
2458;SDS011;1241;50.920;6.936;2023-04-03T00:49:33;5.30;;;4.80;;
2458;SDS011;1241;50.920;6.936;2023-04-03T00:51:59;6.80;;;5.70;;
2458;SDS011;1241;50.920;6.936;2023-04-03T00:54:25;10.05;;;5.72;;
2458;SDS011;1241;50.920;6.936;2023-04-03T00:56:51;5.47;;;4.97;;
2458;SDS011;1241;50.920;6.936;2023-04-03T00:59:25;5.72;;;5.22;;
2458;SDS011;1241;50.920;6.936;2023-04-03T01:01:54;8.25;;;6.55;;
2458;SDS011;1241;50.920;6.936;2023-04-03T01:04:28;6.65;;;4.22;;
2458;SDS011;1241;50.920;6.936;2023-04-03T01:06:59;5.28;;;4.88;;
2458;SDS011;1241;50.920;6.936;2023-04-03T01:09:28;5.88;;;4.68;;
2458;SDS011;1241;50.920;6.936;2023-04-03T01:11:54;5.82;;;5.30;;
2458;SDS011;1241;50.920;6.936;2023-04-03T01:14:50;5.45;;;4.90;;
2458;SDS011;1241;50.920;6.936;2023-04-03T01:17:26;5.80;;;4.13;;
2458;SDS011;1241;50.920;6.936;2023-04-03T01:25:33;7.80;;;6.43;;
2458;SDS011;1241;50.920;6.936;2023-04-03T01:28:02;7.00;;;5.00;;
2458;SDS011;1241;50.920;6.936;2023-04-03T01:30:33;5.50;;;5.00;;
2458;SDS011;1241;50.920;6.936;2023-04-03T01:33:01;6.78;;;4.85;;
2458;SDS011;1241;50.920;6.936;2023-04-03T01:35:27;5.63;;;5.03;;
2458;SDS011;1241;50.920;6.936;2023-04-03T01:37:53;4.90;;;4.40;;
2458;SDS011;1241;50.920;6.936;2023-04-03T01:40:19;5.05;;;4.53;;
2458;SDS011;1241;50.920;6.936;2023-04-03T01:42:46;4.50;;;4.10;;
2458;SDS011;1241;50.920;6.936;2023-04-03T01:45:12;6.38;;;5.45;;
2458;SDS011;1241;50.920;6.936;2023-04-03T01:47:37;4.63;;;4.23;;
2458;SDS011;1241;50.920;6.936;2023-04-03T01:50:04;5.35;;;4.85;;
2458;SDS011;1241;50.920;6.936;2023-04-03T01:52:32;6.78;;;4.78;;
2458;SDS011;1241;50.920;6.936;2023-04-03T01:54:58;8.18;;;5.10;;
2458;SDS011;1241;50.920;6.936;2023-04-03T01:57:23;4.93;;;4.50;;
2458;SDS011;1241;50.920;6.936;2023-04-03T01:59:50;5.45;;;4.88;;
2458;SDS011;1241;50.920;6.936;2023-04-03T02:02:16;5.28;;;4.68;;
2458;SDS011;1241;50.920;6.936;2023-04-03T02:04:42;4.82;;;4.30;;
2458;SDS011;1241;50.920;6.936;2023-04-03T02:07:08;6.38;;;4.68;;
2458;SDS011;1241;50.920;6.936;2023-04-03T02:09:33;5.17;;;4.67;;
2458;SDS011;1241;50.920;6.936;2023-04-03T02:12:00;6.05;;;4.50;;
2458;SDS011;1241;50.920;6.936;2023-04-03T02:14:25;5.80;;;4.80;;
2458;SDS011;1241;50.920;6.936;2023-04-03T02:16:52;7.05;;;5.00;;
2458;SDS011;1241;50.920;6.936;2023-04-03T02:19:21;7.65;;;6.95;;
2458;SDS011;1241;50.920;6.936;2023-04-03T02:21:47;6.00;;;5.50;;
2458;SDS011;1241;50.920;6.936;2023-04-03T02:24:14;7.00;;;6.40;;
2458;SDS011;1241;50.920;6.936;2023-04-03T02:26:39;7.00;;;6.30;;
2458;SDS011;1241;50.920;6.936;2023-04-03T02:29:05;7.03;;;5.93;;
2458;SDS011;1241;50.920;6.936;2023-04-03T02:31:31;7.73;;;6.47;;
2458;SDS011;1241;50.920;6.936;2023-04-03T02:33:59;6.70;;;6.20;;
2458;SDS011;1241;50.920;6.936;2023-04-03T02:36:25;5.90;;;5.40;;
2458;SDS011;1241;50.920;6.936;2023-04-03T02:38:55;6.23;;;5.70;;
2458;SDS011;1241;50.920;6.936;2023-04-03T02:41:21;7.80;;;7.00;;
2458;SDS011;1241;50.920;6.936;2023-04-03T02:43:48;8.13;;;6.68;;
2458;SDS011;1241;50.920;6.936;2023-04-03T02:46:15;7.70;;;6.13;;
2458;SDS011;1241;50.920;6.936;2023-04-03T02:48:41;7.60;;;6.82;;
2458;SDS011;1241;50.920;6.936;2023-04-03T02:51:06;7.55;;;6.78;;
2458;SDS011;1241;50.920;6.936;2023-04-03T02:53:32;7.10;;;6.40;;
2458;SDS011;1241;50.920;6.936;2023-04-03T02:56:04;7.20;;;6.50;;
2458;SDS011;1241;50.920;6.936;2023-04-03T02:58:30;6.85;;;6.25;;
2458;SDS011;1241;50.920;6.936;2023-04-03T03:00:57;7.05;;;6.35;;
2458;SDS011;1241;50.920;6.936;2023-04-03T03:03:23;7.45;;;6.70;;
2458;SDS011;1241;50.920;6.936;2023-04-03T03:05:49;6.15;;;5.65;;
2458;SDS011;1241;50.920;6.936;2023-04-03T03:08:14;6.70;;;6.10;;
2458;SDS011;1241;50.920;6.936;2023-04-03T03:10:40;7.40;;;6.70;;
2458;SDS011;1241;50.920;6.936;2023-04-03T03:13:06;6.57;;;6.03;;
2458;SDS011;1241;50.920;6.936;2023-04-03T03:15:32;7.10;;;6.37;;
2458;SDS011;1241;50.920;6.936;2023-04-03T03:17:57;6.32;;;5.82;;
2458;SDS011;1241;50.920;6.936;2023-04-03T03:20:23;6.67;;;6.07;;
2458;SDS011;1241;50.920;6.936;2023-04-03T03:22:49;5.95;;;5.55;;
2458;SDS011;1241;50.920;6.936;2023-04-03T03:25:14;6.65;;;5.95;;
2458;SDS011;1241;50.920;6.936;2023-04-03T03:27:40;7.10;;;6.50;;
2458;SDS011;1241;50.920;6.936;2023-04-03T03:30:06;6.22;;;5.63;;
2458;SDS011;1241;50.920;6.936;2023-04-03T03:32:32;6.00;;;5.50;;
2458;SDS011;1241;50.920;6.936;2023-04-03T03:34:58;6.23;;;5.63;;
2458;SDS011;1241;50.920;6.936;2023-04-03T03:37:24;5.85;;;4.93;;
2458;SDS011;1241;50.920;6.936;2023-04-03T03:39:50;6.40;;;5.80;;
2458;SDS011;1241;50.920;6.936;2023-04-03T03:42:16;6.20;;;5.70;;
2458;SDS011;1241;50.920;6.936;2023-04-03T03:44:42;6.63;;;5.93;;
2458;SDS011;1241;50.920;6.936;2023-04-03T03:47:08;6.47;;;5.88;;
2458;SDS011;1241;50.920;6.936;2023-04-03T03:49:36;6.03;;;5.43;;
2458;SDS011;1241;50.920;6.936;2023-04-03T03:52:02;5.87;;;5.37;;
2458;SDS011;1241;50.920;6.936;2023-04-03T03:54:27;5.53;;;5.03;;
2458;SDS011;1241;50.920;6.936;2023-04-03T03:56:53;5.50;;;4.93;;
2458;SDS011;1241;50.920;6.936;2023-04-03T03:59:19;5.18;;;4.68;;
2458;SDS011;1241;50.920;6.936;2023-04-03T04:01:46;5.65;;;5.00;;
2458;SDS011;1241;50.920;6.936;2023-04-03T04:04:11;5.80;;;5.30;;
2458;SDS011;1241;50.920;6.936;2023-04-03T04:06:37;5.20;;;4.70;;
2458;SDS011;1241;50.920;6.936;2023-04-03T04:09:06;5.78;;;4.50;;
2458;SDS011;1241;50.920;6.936;2023-04-03T04:11:33;7.15;;;5.10;;
2458;SDS011;1241;50.920;6.936;2023-04-03T04:13:59;5.53;;;5.03;;
2458;SDS011;1241;50.920;6.936;2023-04-03T04:16:27;5.00;;;4.68;;
2458;SDS011;1241;50.920;6.936;2023-04-03T04:18:55;5.47;;;5.07;;
2458;SDS011;1241;50.920;6.936;2023-04-03T04:21:22;8.68;;;5.63;;
2458;SDS011;1241;50.920;6.936;2023-04-03T04:23:50;6.23;;;5.60;;
2458;SDS011;1241;50.920;6.936;2023-04-03T04:26:16;5.78;;;4.45;;
2458;SDS011;1241;50.920;6.936;2023-04-03T04:28:42;6.30;;;5.23;;
2458;SDS011;1241;50.920;6.936;2023-04-03T04:31:08;8.35;;;5.10;;
2458;SDS011;1241;50.920;6.936;2023-04-03T04:33:33;7.20;;;5.97;;
2458;SDS011;1241;50.920;6.936;2023-04-03T04:36:02;6.13;;;5.53;;
2458;SDS011;1241;50.920;6.936;2023-04-03T04:38:28;6.07;;;5.47;;
2458;SDS011;1241;50.920;6.936;2023-04-03T04:40:54;9.95;;;6.35;;
2458;SDS011;1241;50.920;6.936;2023-04-03T04:43:20;7.15;;;5.30;;
2458;SDS011;1241;50.920;6.936;2023-04-03T04:45:57;7.00;;;6.07;;
2458;SDS011;1241;50.920;6.936;2023-04-03T04:48:37;5.85;;;4.90;;
2458;SDS011;1241;50.920;6.936;2023-04-03T04:51:04;5.80;;;5.30;;
2458;SDS011;1241;50.920;6.936;2023-04-03T04:53:30;6.40;;;5.18;;
2458;SDS011;1241;50.920;6.936;2023-04-03T04:55:55;8.27;;;6.97;;
2458;SDS011;1241;50.920;6.936;2023-04-03T04:58:22;6.45;;;4.70;;
2458;SDS011;1241;50.920;6.936;2023-04-03T05:00:48;7.72;;;6.05;;
2458;SDS011;1241;50.920;6.936;2023-04-03T05:03:15;5.32;;;4.80;;
2458;SDS011;1241;50.920;6.936;2023-04-03T05:05:41;6.78;;;5.20;;
2458;SDS011;1241;50.920;6.936;2023-04-03T05:08:07;7.00;;;4.80;;
2458;SDS011;1241;50.920;6.936;2023-04-03T05:10:33;6.53;;;4.40;;
2458;SDS011;1241;50.920;6.936;2023-04-03T05:13:00;7.60;;;6.40;;
2458;SDS011;1241;50.920;6.936;2023-04-03T05:15:26;6.88;;;4.30;;
2458;SDS011;1241;50.920;6.936;2023-04-03T05:17:52;6.55;;;5.53;;
2458;SDS011;1241;50.920;6.936;2023-04-03T05:20:18;5.78;;;4.38;;
2458;SDS011;1241;50.920;6.936;2023-04-03T05:22:45;6.68;;;4.55;;
2458;SDS011;1241;50.920;6.936;2023-04-03T05:25:11;4.95;;;4.32;;
2458;SDS011;1241;50.920;6.936;2023-04-03T05:27:40;6.40;;;4.88;;
2458;SDS011;1241;50.920;6.936;2023-04-03T05:30:07;4.90;;;3.63;;
2458;SDS011;1241;50.920;6.936;2023-04-03T05:32:35;4.60;;;4.30;;
2458;SDS011;1241;50.920;6.936;2023-04-03T05:35:20;4.63;;;4.15;;
2458;SDS011;1241;50.920;6.936;2023-04-03T05:37:49;4.15;;;3.75;;
2458;SDS011;1241;50.920;6.936;2023-04-03T05:40:15;6.15;;;4.40;;
2458;SDS011;1241;50.920;6.936;2023-04-03T05:42:44;3.80;;;3.40;;
2458;SDS011;1241;50.920;6.936;2023-04-03T05:45:11;3.75;;;3.42;;
2458;SDS011;1241;50.920;6.936;2023-04-03T05:47:37;4.57;;;4.00;;
2458;SDS011;1241;50.920;6.936;2023-04-03T05:50:05;5.70;;;3.70;;
2458;SDS011;1241;50.920;6.936;2023-04-03T05:52:33;3.37;;;3.17;;
2458;SDS011;1241;50.920;6.936;2023-04-03T05:55:04;6.00;;;3.95;;
2458;SDS011;1241;50.920;6.936;2023-04-03T05:57:33;4.05;;;3.65;;
2458;SDS011;1241;50.920;6.936;2023-04-03T05:59:59;3.72;;;3.42;;
2458;SDS011;1241;50.920;6.936;2023-04-03T06:02:24;6.00;;;3.50;;
2458;SDS011;1241;50.920;6.936;2023-04-03T06:04:51;3.50;;;3.20;;
2458;SDS011;1241;50.920;6.936;2023-04-03T06:07:19;17.02;;;12.45;;
2458;SDS011;1241;50.920;6.936;2023-04-03T06:09:49;13.07;;;10.00;;
2458;SDS011;1241;50.920;6.936;2023-04-03T06:12:18;6.72;;;5.60;;
2458;SDS011;1241;50.920;6.936;2023-04-03T06:14:44;12.27;;;9.57;;
2458;SDS011;1241;50.920;6.936;2023-04-03T06:17:12;8.85;;;7.05;;
2458;SDS011;1241;50.920;6.936;2023-04-03T06:19:38;7.83;;;5.27;;
2458;SDS011;1241;50.920;6.936;2023-04-03T06:22:05;4.70;;;3.42;;
2458;SDS011;1241;50.920;6.936;2023-04-03T06:24:30;5.35;;;3.40;;
2458;SDS011;1241;50.920;6.936;2023-04-03T06:26:56;5.30;;;3.30;;
2458;SDS011;1241;50.920;6.936;2023-04-03T06:29:23;4.50;;;3.10;;
2458;SDS011;1241;50.920;6.936;2023-04-03T06:31:49;3.95;;;2.90;;
2458;SDS011;1241;50.920;6.936;2023-04-03T06:34:16;5.05;;;2.97;;
2458;SDS011;1241;50.920;6.936;2023-04-03T06:36:43;3.75;;;3.05;;
2458;SDS011;1241;50.920;6.936;2023-04-03T06:39:13;7.60;;;2.90;;
2458;SDS011;1241;50.920;6.936;2023-04-03T06:41:41;3.58;;;2.47;;
2458;SDS011;1241;50.920;6.936;2023-04-03T06:44:07;3.15;;;2.85;;
2458;SDS011;1241;50.920;6.936;2023-04-03T06:46:36;2.95;;;2.70;;
2458;SDS011;1241;50.920;6.936;2023-04-03T06:49:03;4.65;;;2.80;;
2458;SDS011;1241;50.920;6.936;2023-04-03T06:51:29;3.17;;;2.20;;
2458;SDS011;1241;50.920;6.936;2023-04-03T06:53:56;4.13;;;2.03;;
2458;SDS011;1241;50.920;6.936;2023-04-03T06:56:23;3.78;;;3.30;;
2458;SDS011;1241;50.920;6.936;2023-04-03T06:58:50;2.75;;;2.00;;
2458;SDS011;1241;50.920;6.936;2023-04-03T07:01:17;4.47;;;2.97;;
2458;SDS011;1241;50.920;6.936;2023-04-03T07:03:47;5.32;;;2.28;;
2458;SDS011;1241;50.920;6.936;2023-04-03T07:06:14;4.07;;;3.10;;
2458;SDS011;1241;50.920;6.936;2023-04-03T07:08:41;5.68;;;3.22;;
2458;SDS011;1241;50.920;6.936;2023-04-03T07:11:07;6.97;;;3.67;;
2458;SDS011;1241;50.920;6.936;2023-04-03T07:13:34;3.78;;;2.50;;
2458;SDS011;1241;50.920;6.936;2023-04-03T07:16:00;6.25;;;3.40;;
2458;SDS011;1241;50.920;6.936;2023-04-03T07:18:26;3.25;;;2.83;;
2458;SDS011;1241;50.920;6.936;2023-04-03T07:20:52;3.87;;;2.67;;
2458;SDS011;1241;50.920;6.936;2023-04-03T07:23:18;3.73;;;2.93;;
2458;SDS011;1241;50.920;6.936;2023-04-03T07:25:44;3.13;;;2.30;;
2458;SDS011;1241;50.920;6.936;2023-04-03T07:28:11;7.50;;;2.50;;
2458;SDS011;1241;50.920;6.936;2023-04-03T07:30:47;3.53;;;2.55;;
2458;SDS011;1241;50.920;6.936;2023-04-03T07:33:16;7.13;;;3.25;;
2458;SDS011;1241;50.920;6.936;2023-04-03T07:35:43;4.40;;;2.05;;
2458;SDS011;1241;50.920;6.936;2023-04-03T07:38:09;4.43;;;2.30;;
2458;SDS011;1241;50.920;6.936;2023-04-03T07:40:35;3.40;;;1.73;;
2458;SDS011;1241;50.920;6.936;2023-04-03T07:43:01;6.45;;;2.42;;
2458;SDS011;1241;50.920;6.936;2023-04-03T07:45:27;3.15;;;2.40;;
2458;SDS011;1241;50.920;6.936;2023-04-03T07:47:53;4.25;;;2.25;;
2458;SDS011;1241;50.920;6.936;2023-04-03T07:50:19;3.40;;;2.23;;
2458;SDS011;1241;50.920;6.936;2023-04-03T07:52:45;3.43;;;2.33;;
2458;SDS011;1241;50.920;6.936;2023-04-03T07:55:11;2.83;;;2.35;;
2458;SDS011;1241;50.920;6.936;2023-04-03T07:57:37;5.82;;;2.50;;
2458;SDS011;1241;50.920;6.936;2023-04-03T08:00:03;3.20;;;2.50;;
2458;SDS011;1241;50.920;6.936;2023-04-03T08:02:37;6.07;;;3.10;;
2458;SDS011;1241;50.920;6.936;2023-04-03T08:05:03;3.60;;;2.70;;
2458;SDS011;1241;50.920;6.936;2023-04-03T08:07:29;3.65;;;1.95;;
2458;SDS011;1241;50.920;6.936;2023-04-03T08:09:54;4.63;;;2.70;;
2458;SDS011;1241;50.920;6.936;2023-04-03T08:12:21;4.53;;;2.22;;
2458;SDS011;1241;50.920;6.936;2023-04-03T08:14:46;2.57;;;2.10;;
2458;SDS011;1241;50.920;6.936;2023-04-03T08:17:12;8.13;;;2.47;;
2458;SDS011;1241;50.920;6.936;2023-04-03T08:19:38;3.87;;;2.00;;
2458;SDS011;1241;50.920;6.936;2023-04-03T08:22:04;7.22;;;2.10;;
2458;SDS011;1241;50.920;6.936;2023-04-03T08:24:31;2.83;;;2.05;;
2458;SDS011;1241;50.920;6.936;2023-04-03T08:27:00;7.35;;;2.50;;
2458;SDS011;1241;50.920;6.936;2023-04-03T08:29:26;3.95;;;2.20;;
2458;SDS011;1241;50.920;6.936;2023-04-03T08:31:52;3.67;;;2.45;;
2458;SDS011;1241;50.920;6.936;2023-04-03T08:34:18;5.38;;;2.00;;
2458;SDS011;1241;50.920;6.936;2023-04-03T08:36:44;2.57;;;1.47;;
2458;SDS011;1241;50.920;6.936;2023-04-03T08:39:10;5.80;;;2.15;;
2458;SDS011;1241;50.920;6.936;2023-04-03T08:41:38;2.60;;;1.80;;
2458;SDS011;1241;50.920;6.936;2023-04-03T08:49:49;5.40;;;2.17;;
2458;SDS011;1241;50.920;6.936;2023-04-03T08:55:20;3.70;;;1.85;;
2458;SDS011;1241;50.920;6.936;2023-04-03T09:01:03;5.07;;;2.22;;
2458;SDS011;1241;50.920;6.936;2023-04-03T09:03:44;2.08;;;1.88;;
2458;SDS011;1241;50.920;6.936;2023-04-03T09:06:14;2.10;;;1.60;;
2458;SDS011;1241;50.920;6.936;2023-04-03T09:14:15;4.75;;;2.05;;
2458;SDS011;1241;50.920;6.936;2023-04-03T09:22:09;4.78;;;2.33;;
2458;SDS011;1241;50.920;6.936;2023-04-03T09:24:50;1.92;;;1.73;;
2458;SDS011;1241;50.920;6.936;2023-04-03T09:27:23;2.00;;;1.80;;
2458;SDS011;1241;50.920;6.936;2023-04-03T09:29:49;2.67;;;1.70;;
2458;SDS011;1241;50.920;6.936;2023-04-03T09:32:53;2.10;;;2.00;;
2458;SDS011;1241;50.920;6.936;2023-04-03T09:37:53;4.72;;;2.08;;
2458;SDS011;1241;50.920;6.936;2023-04-03T09:40:38;2.28;;;2.00;;
2458;SDS011;1241;50.920;6.936;2023-04-03T09:45:43;2.67;;;1.92;;
2458;SDS011;1241;50.920;6.936;2023-04-03T09:53:31;2.33;;;1.80;;
2458;SDS011;1241;50.920;6.936;2023-04-03T09:56:25;2.83;;;1.65;;
2458;SDS011;1241;50.920;6.936;2023-04-03T09:59:13;2.67;;;1.75;;
2458;SDS011;1241;50.920;6.936;2023-04-03T10:01:42;1.77;;;1.58;;
2458;SDS011;1241;50.920;6.936;2023-04-03T10:04:22;4.20;;;1.80;;
2458;SDS011;1241;50.920;6.936;2023-04-03T10:06:49;3.17;;;1.63;;
2458;SDS011;1241;50.920;6.936;2023-04-03T10:09:27;2.08;;;1.63;;
2458;SDS011;1241;50.920;6.936;2023-04-03T10:14:35;4.57;;;1.20;;
2458;SDS011;1241;50.920;6.936;2023-04-03T10:19:58;2.20;;;1.70;;
2458;SDS011;1241;50.920;6.936;2023-04-03T10:25:32;2.30;;;1.90;;
2458;SDS011;1241;50.920;6.936;2023-04-03T10:30:58;3.13;;;1.67;;
2458;SDS011;1241;50.920;6.936;2023-04-03T10:36:35;2.78;;;1.50;;
2458;SDS011;1241;50.920;6.936;2023-04-03T10:39:27;3.90;;;2.10;;
2458;SDS011;1241;50.920;6.936;2023-04-03T10:48:02;1.73;;;1.55;;
2458;SDS011;1241;50.920;6.936;2023-04-03T10:55:53;2.92;;;1.80;;
2458;SDS011;1241;50.920;6.936;2023-04-03T11:01:02;2.70;;;1.70;;
2458;SDS011;1241;50.920;6.936;2023-04-03T11:03:41;1.65;;;1.15;;
2458;SDS011;1241;50.920;6.936;2023-04-03T11:06:11;2.00;;;1.10;;
2458;SDS011;1241;50.920;6.936;2023-04-03T11:08:44;1.30;;;1.20;;
2458;SDS011;1241;50.920;6.936;2023-04-03T11:22:39;3.10;;;1.15;;
2458;SDS011;1241;50.920;6.936;2023-04-03T11:27:58;3.80;;;1.95;;
2458;SDS011;1241;50.920;6.936;2023-04-03T11:30:42;4.35;;;1.50;;
2458;SDS011;1241;50.920;6.936;2023-04-03T11:36:26;2.45;;;1.20;;
2458;SDS011;1241;50.920;6.936;2023-04-03T11:38:57;1.73;;;1.30;;
2458;SDS011;1241;50.920;6.936;2023-04-03T11:41:26;1.40;;;1.30;;
2458;SDS011;1241;50.920;6.936;2023-04-03T11:43:56;2.58;;;1.58;;
2458;SDS011;1241;50.920;6.936;2023-04-03T12:16:19;1.88;;;1.10;;
2458;SDS011;1241;50.920;6.936;2023-04-03T12:23:59;1.58;;;1.20;;
2458;SDS011;1241;50.920;6.936;2023-04-03T12:37:51;1.85;;;1.38;;
2458;SDS011;1241;50.920;6.936;2023-04-03T12:43:18;2.17;;;1.63;;
2458;SDS011;1241;50.920;6.936;2023-04-03T12:46:11;1.38;;;1.20;;
2458;SDS011;1241;50.920;6.936;2023-04-03T12:48:51;1.40;;;1.25;;
2458;SDS011;1241;50.920;6.936;2023-04-03T12:57:08;2.03;;;1.50;;
2458;SDS011;1241;50.920;6.936;2023-04-03T12:59:38;1.75;;;1.60;;
2458;SDS011;1241;50.920;6.936;2023-04-03T13:02:10;1.48;;;1.20;;
2458;SDS011;1241;50.920;6.936;2023-04-03T13:04:46;1.20;;;1.10;;
2458;SDS011;1241;50.920;6.936;2023-04-03T13:07:29;1.73;;;1.63;;
2458;SDS011;1241;50.920;6.936;2023-04-03T13:12:44;2.00;;;1.77;;
2458;SDS011;1241;50.920;6.936;2023-04-03T13:15:14;1.73;;;1.40;;
2458;SDS011;1241;50.920;6.936;2023-04-03T13:17:46;1.50;;;1.40;;
2458;SDS011;1241;50.920;6.936;2023-04-03T13:20:19;1.80;;;1.25;;
2458;SDS011;1241;50.920;6.936;2023-04-03T13:22:52;1.95;;;1.40;;
2458;SDS011;1241;50.920;6.936;2023-04-03T13:25:26;2.22;;;1.38;;
2458;SDS011;1241;50.920;6.936;2023-04-03T13:27:54;1.75;;;1.65;;
2458;SDS011;1241;50.920;6.936;2023-04-03T13:30:23;1.77;;;1.63;;
2458;SDS011;1241;50.920;6.936;2023-04-03T13:32:59;1.85;;;1.00;;
2458;SDS011;1241;50.920;6.936;2023-04-03T13:36:02;2.28;;;1.60;;
2458;SDS011;1241;50.920;6.936;2023-04-03T13:38:23;1.42;;;1.30;;
2458;SDS011;1241;50.920;6.936;2023-04-03T13:40:52;3.05;;;1.33;;
2458;SDS011;1241;50.920;6.936;2023-04-03T13:43:22;2.53;;;1.75;;
2458;SDS011;1241;50.920;6.936;2023-04-03T13:46:21;2.30;;;1.30;;
2458;SDS011;1241;50.920;6.936;2023-04-03T13:48:50;1.75;;;1.60;;
2458;SDS011;1241;50.920;6.936;2023-04-03T13:53:46;1.93;;;1.80;;
2458;SDS011;1241;50.920;6.936;2023-04-03T13:56:24;3.45;;;1.88;;
2458;SDS011;1241;50.920;6.936;2023-04-03T14:04:29;5.28;;;2.00;;
2458;SDS011;1241;50.920;6.936;2023-04-03T14:07:10;2.15;;;1.73;;
2458;SDS011;1241;50.920;6.936;2023-04-03T14:09:40;1.95;;;1.85;;
2458;SDS011;1241;50.920;6.936;2023-04-03T14:12:07;3.70;;;2.00;;
2458;SDS011;1241;50.920;6.936;2023-04-03T14:14:38;1.70;;;1.60;;
2458;SDS011;1241;50.920;6.936;2023-04-03T14:17:18;1.48;;;1.38;;
2458;SDS011;1241;50.920;6.936;2023-04-03T14:19:48;2.75;;;1.75;;
2458;SDS011;1241;50.920;6.936;2023-04-03T14:22:35;4.03;;;1.48;;
2458;SDS011;1241;50.920;6.936;2023-04-03T14:25:00;2.05;;;1.77;;
2458;SDS011;1241;50.920;6.936;2023-04-03T14:27:33;3.07;;;1.40;;
2458;SDS011;1241;50.920;6.936;2023-04-03T14:30:01;2.08;;;1.55;;
2458;SDS011;1241;50.920;6.936;2023-04-03T14:32:28;1.95;;;1.58;;
2458;SDS011;1241;50.920;6.936;2023-04-03T14:34:55;3.50;;;1.42;;
2458;SDS011;1241;50.920;6.936;2023-04-03T14:37:24;3.65;;;1.67;;
2458;SDS011;1241;50.920;6.936;2023-04-03T14:39:53;2.88;;;1.55;;
2458;SDS011;1241;50.920;6.936;2023-04-03T14:42:21;2.00;;;1.35;;
2458;SDS011;1241;50.920;6.936;2023-04-03T14:44:49;2.40;;;1.65;;
2458;SDS011;1241;50.920;6.936;2023-04-03T14:47:16;2.50;;;2.10;;
2458;SDS011;1241;50.920;6.936;2023-04-03T14:49:46;3.35;;;1.65;;
2458;SDS011;1241;50.920;6.936;2023-04-03T14:52:23;1.90;;;1.60;;
2458;SDS011;1241;50.920;6.936;2023-04-03T14:54:51;2.00;;;1.80;;
2458;SDS011;1241;50.920;6.936;2023-04-03T14:57:18;1.70;;;1.45;;
2458;SDS011;1241;50.920;6.936;2023-04-03T14:59:44;1.85;;;1.67;;
2458;SDS011;1241;50.920;6.936;2023-04-03T15:02:30;3.30;;;1.70;;
2458;SDS011;1241;50.920;6.936;2023-04-03T15:05:04;1.70;;;1.60;;
2458;SDS011;1241;50.920;6.936;2023-04-03T15:07:33;3.50;;;2.30;;
2458;SDS011;1241;50.920;6.936;2023-04-03T15:10:34;2.17;;;1.60;;
2458;SDS011;1241;50.920;6.936;2023-04-03T15:12:54;2.10;;;1.70;;
2458;SDS011;1241;50.920;6.936;2023-04-03T15:15:20;2.83;;;2.00;;
2458;SDS011;1241;50.920;6.936;2023-04-03T15:17:52;3.28;;;1.80;;
2458;SDS011;1241;50.920;6.936;2023-04-03T15:20:21;2.25;;;1.48;;
2458;SDS011;1241;50.920;6.936;2023-04-03T15:22:49;2.08;;;1.85;;
2458;SDS011;1241;50.920;6.936;2023-04-03T15:25:15;3.33;;;1.47;;
2458;SDS011;1241;50.920;6.936;2023-04-03T15:27:41;2.20;;;1.67;;
2458;SDS011;1241;50.920;6.936;2023-04-03T15:30:08;4.53;;;2.42;;
2458;SDS011;1241;50.920;6.936;2023-04-03T15:32:38;2.25;;;1.67;;
2458;SDS011;1241;50.920;6.936;2023-04-03T15:35:04;2.53;;;1.37;;
2458;SDS011;1241;50.920;6.936;2023-04-03T15:37:30;3.63;;;1.30;;
2458;SDS011;1241;50.920;6.936;2023-04-03T15:39:56;2.60;;;1.50;;
2458;SDS011;1241;50.920;6.936;2023-04-03T15:42:21;2.73;;;1.63;;
2458;SDS011;1241;50.920;6.936;2023-04-03T15:44:47;2.27;;;1.70;;
2458;SDS011;1241;50.920;6.936;2023-04-03T15:47:13;1.97;;;1.30;;
2458;SDS011;1241;50.920;6.936;2023-04-03T15:49:39;3.90;;;2.03;;
2458;SDS011;1241;50.920;6.936;2023-04-03T15:52:04;2.33;;;1.70;;
2458;SDS011;1241;50.920;6.936;2023-04-03T15:54:30;1.30;;;1.20;;
2458;SDS011;1241;50.920;6.936;2023-04-03T15:56:57;2.25;;;2.00;;
2458;SDS011;1241;50.920;6.936;2023-04-03T15:59:22;3.60;;;1.58;;
2458;SDS011;1241;50.920;6.936;2023-04-03T16:01:48;1.90;;;1.33;;
2458;SDS011;1241;50.920;6.936;2023-04-03T16:04:15;2.00;;;1.38;;
2458;SDS011;1241;50.920;6.936;2023-04-03T16:06:41;1.87;;;1.50;;
2458;SDS011;1241;50.920;6.936;2023-04-03T16:09:07;2.67;;;1.50;;
2458;SDS011;1241;50.920;6.936;2023-04-03T16:11:33;3.35;;;1.80;;
2458;SDS011;1241;50.920;6.936;2023-04-03T16:14:02;1.80;;;1.70;;
2458;SDS011;1241;50.920;6.936;2023-04-03T16:16:28;3.77;;;2.13;;
2458;SDS011;1241;50.920;6.936;2023-04-03T16:18:55;3.00;;;1.73;;
2458;SDS011;1241;50.920;6.936;2023-04-03T16:21:21;3.63;;;1.80;;
2458;SDS011;1241;50.920;6.936;2023-04-03T16:23:47;1.98;;;1.70;;
2458;SDS011;1241;50.920;6.936;2023-04-03T16:26:13;3.10;;;1.60;;
2458;SDS011;1241;50.920;6.936;2023-04-03T16:28:39;1.75;;;1.55;;
2458;SDS011;1241;50.920;6.936;2023-04-03T16:31:05;3.30;;;2.07;;
2458;SDS011;1241;50.920;6.936;2023-04-03T16:33:32;1.75;;;1.55;;
2458;SDS011;1241;50.920;6.936;2023-04-03T16:35:58;4.75;;;1.77;;
2458;SDS011;1241;50.920;6.936;2023-04-03T16:38:24;2.27;;;1.60;;
2458;SDS011;1241;50.920;6.936;2023-04-03T16:40:50;1.60;;;1.50;;
2458;SDS011;1241;50.920;6.936;2023-04-03T16:43:17;5.20;;;1.70;;
2458;SDS011;1241;50.920;6.936;2023-04-03T16:45:43;2.87;;;1.93;;
2458;SDS011;1241;50.920;6.936;2023-04-03T16:48:08;6.10;;;1.80;;
2458;SDS011;1241;50.920;6.936;2023-04-03T16:50:35;2.05;;;1.85;;
2458;SDS011;1241;50.920;6.936;2023-04-03T16:53:01;1.70;;;1.30;;
2458;SDS011;1241;50.920;6.936;2023-04-03T16:55:28;3.17;;;1.70;;
2458;SDS011;1241;50.920;6.936;2023-04-03T16:57:53;2.37;;;1.77;;
2458;SDS011;1241;50.920;6.936;2023-04-03T17:00:20;1.45;;;1.35;;
2458;SDS011;1241;50.920;6.936;2023-04-03T17:02:46;2.90;;;1.80;;
2458;SDS011;1241;50.920;6.936;2023-04-03T17:05:12;2.13;;;1.93;;
2458;SDS011;1241;50.920;6.936;2023-04-03T17:07:37;1.93;;;1.53;;
2458;SDS011;1241;50.920;6.936;2023-04-03T17:10:03;2.63;;;2.43;;
2458;SDS011;1241;50.920;6.936;2023-04-03T17:12:29;2.90;;;1.77;;
2458;SDS011;1241;50.920;6.936;2023-04-03T17:14:55;3.13;;;1.73;;
2458;SDS011;1241;50.920;6.936;2023-04-03T17:17:22;2.93;;;1.67;;
2458;SDS011;1241;50.920;6.936;2023-04-03T17:19:49;3.35;;;1.52;;
2458;SDS011;1241;50.920;6.936;2023-04-03T17:22:15;3.87;;;1.80;;
2458;SDS011;1241;50.920;6.936;2023-04-03T17:24:42;2.40;;;2.13;;
2458;SDS011;1241;50.920;6.936;2023-04-03T17:27:08;4.13;;;1.88;;
2458;SDS011;1241;50.920;6.936;2023-04-03T17:29:34;3.03;;;2.13;;
2458;SDS011;1241;50.920;6.936;2023-04-03T17:32:00;2.20;;;1.73;;
2458;SDS011;1241;50.920;6.936;2023-04-03T17:34:26;6.47;;;3.20;;
2458;SDS011;1241;50.920;6.936;2023-04-03T17:36:51;2.70;;;2.50;;
2458;SDS011;1241;50.920;6.936;2023-04-03T17:46:35;2.07;;;1.60;;
2458;SDS011;1241;50.920;6.936;2023-04-03T17:49:01;2.00;;;1.80;;
2458;SDS011;1241;50.920;6.936;2023-04-03T17:51:28;1.60;;;1.50;;
2458;SDS011;1241;50.920;6.936;2023-04-03T17:53:56;5.25;;;2.00;;
2458;SDS011;1241;50.920;6.936;2023-04-03T17:56:23;3.57;;;1.70;;
2458;SDS011;1241;50.920;6.936;2023-04-03T17:58:51;2.53;;;2.03;;
2458;SDS011;1241;50.920;6.936;2023-04-03T18:01:23;2.70;;;1.88;;
2458;SDS011;1241;50.920;6.936;2023-04-03T18:03:51;5.07;;;1.90;;